Key Largo, Florida
Current Conditions -  °F | °C
As of 3:58 AM on Monday 20 Oct 2014 (Local Time) from KHST Reporting Station
Few Clouds Few Clouds  
Wind Chill: 73°   Ceiling: Unl
Heat Index: 73°   Visibility: 10mi
Dew Point: 65°   Wind: 0mph
Humidity: 77%   Direction: NA
Pressure: 29.98"   Gusts: NA
Location:  25.17°N, 80.38°W
Report Text: KHST 200758Z AUTO 00000KT 10SM FEW042 23/19 A2998 RMK AO2 SLP155 T02270185
Loading
Personal Weather Stations






























Interactive Weather Map
Tropical Storm Tracking
New forecast layout! Learn more

10-Day Weather Forecast

Advertisements
Track Severe Weather on mobile